createdAt,value
2023-01-20T00:00:49.542Z,9.85
2023-01-20T00:03:18.906Z,11.85
2023-01-20T00:05:54.830Z,11.07
2023-01-20T00:08:24.054Z,13.68
2023-01-20T00:10:53.433Z,11.20
2023-01-20T00:13:26.624Z,14.80
2023-01-20T00:15:55.841Z,12.00
2023-01-20T00:18:25.072Z,13.05
2023-01-20T00:20:55.711Z,11.73
2023-01-20T00:23:51.762Z,10.90
2023-01-20T00:26:22.754Z,9.40
2023-01-20T00:28:54.535Z,11.35
2023-01-20T00:31:26.545Z,10.35
2023-01-20T00:34:02.596Z,10.98
2023-01-20T00:36:34.688Z,11.75
2023-01-20T00:39:04.567Z,11.45
2023-01-20T00:41:34.296Z,11.10
2023-01-20T00:44:03.556Z,11.57
2023-01-20T00:46:32.804Z,11.05
2023-01-20T00:49:02.007Z,11.02
2023-01-20T00:51:32.723Z,10.40
2023-01-20T00:54:01.829Z,11.63
2023-01-20T00:56:31.174Z,9.30
2023-01-20T00:59:00.282Z,11.48
2023-01-20T01:01:29.456Z,11.35
2023-01-20T01:03:58.841Z,11.63
2023-01-20T01:06:28.017Z,10.27
2023-01-20T01:08:58.593Z,9.15
2023-01-20T01:11:28.249Z,10.20
2023-01-20T01:13:58.303Z,11.80
2023-01-20T01:16:27.584Z,11.63
2023-01-20T01:18:56.788Z,11.80
2023-01-20T01:21:26.271Z,11.48
2023-01-20T01:23:57.367Z,9.35
2023-01-20T01:26:26.745Z,10.57
2023-01-20T01:28:55.909Z,10.02
2023-01-20T01:31:25.174Z,12.48
2023-01-20T01:33:54.371Z,9.75
2023-01-20T01:36:23.783Z,10.00
2023-01-20T01:38:57.158Z,9.90
2023-01-20T01:41:28.978Z,9.75
2023-01-20T01:44:09.533Z,10.10
2023-01-20T01:46:39.302Z,8.75
2023-01-20T01:49:11.707Z,10.80
2023-01-20T01:51:44.563Z,10.75
2023-01-20T01:54:17.005Z,9.98
2023-01-20T01:56:49.808Z,10.70
2023-01-20T01:59:20.501Z,8.52
2023-01-20T02:01:55.049Z,10.30
2023-01-20T02:04:26.928Z,9.07
2023-01-20T02:07:01.609Z,8.77
2023-01-20T02:09:32.131Z,8.68
2023-01-20T02:12:05.468Z,10.18
2023-01-20T02:14:38.455Z,9.05
2023-01-20T02:17:16.517Z,10.35
2023-01-20T02:20:20.098Z,9.93
2023-01-20T02:22:57.694Z,9.23
2023-01-20T02:25:44.037Z,9.95
2023-01-20T02:28:43.078Z,8.98
2023-01-20T02:31:33.804Z,10.23
2023-01-20T02:34:07.784Z,9.55
2023-01-20T02:36:44.852Z,9.10
2023-01-20T02:39:27.437Z,11.50
2023-01-20T02:42:02.202Z,11.70
2023-01-20T02:44:37.221Z,9.65
2023-01-20T02:47:13.281Z,10.00
2023-01-20T02:49:53.892Z,10.82
2023-01-20T02:52:27.025Z,11.10
2023-01-20T02:54:58.976Z,10.73
2023-01-20T02:57:46.816Z,10.40
2023-01-20T03:00:21.460Z,9.10
2023-01-20T03:02:54.337Z,9.57
2023-01-20T03:05:30.141Z,10.50
2023-01-20T03:08:02.600Z,10.50
2023-01-20T03:10:36.846Z,11.38
2023-01-20T03:13:13.715Z,9.65
2023-01-20T03:15:56.922Z,11.27
2023-01-20T03:18:27.219Z,11.20
2023-01-20T03:20:58.635Z,10.90
2023-01-20T03:23:29.374Z,10.25
2023-01-20T03:25:59.827Z,11.95
2023-01-20T03:28:28.940Z,11.10
2023-01-20T03:31:00.329Z,12.15
2023-01-20T03:33:29.517Z,10.95
2023-01-20T03:36:00.374Z,12.82
2023-01-20T03:38:29.694Z,12.48
2023-01-20T03:41:04.766Z,11.38
2023-01-20T03:43:44.827Z,11.73
2023-01-20T03:46:20.788Z,12.73
2023-01-20T03:48:57.088Z,12.15
2023-01-20T03:51:36.219Z,12.75
2023-01-20T03:54:09.657Z,13.30
2023-01-20T03:56:43.710Z,10.25
2023-01-20T03:59:15.433Z,12.25
2023-01-20T04:01:46.139Z,11.00
2023-01-20T04:04:18.425Z,12.75
2023-01-20T04:06:51.440Z,14.82
2023-01-20T04:09:25.892Z,15.88
2023-01-20T04:11:55.282Z,14.95
2023-01-20T04:14:24.541Z,14.35
2023-01-20T04:16:59.259Z,15.40
2023-01-20T04:19:28.768Z,15.18
2023-01-20T04:22:06.437Z,15.60
2023-01-20T04:24:39.540Z,14.43
2023-01-20T04:27:08.587Z,14.98
2023-01-20T04:29:37.851Z,14.82
2023-01-20T04:32:07.192Z,14.43
2023-01-20T04:34:36.223Z,16.30
2023-01-20T04:37:06.912Z,14.38
2023-01-20T04:39:36.056Z,14.43
2023-01-20T04:42:06.284Z,14.20
2023-01-20T04:44:35.294Z,14.23
2023-01-20T04:47:04.693Z,15.50
2023-01-20T04:49:33.776Z,14.23
2023-01-20T04:52:02.816Z,14.48
2023-01-20T04:54:33.308Z,17.98
2023-01-20T04:57:02.396Z,15.00
2023-01-20T04:59:31.402Z,15.63
2023-01-20T05:02:00.540Z,15.65
2023-01-20T05:04:29.748Z,14.73
2023-01-20T05:06:58.803Z,16.08
2023-01-20T05:09:27.965Z,16.63
2023-01-20T05:11:58.468Z,16.17
2023-01-20T05:14:27.570Z,16.35
2023-01-20T05:16:56.643Z,15.85
2023-01-20T05:19:25.781Z,16.17
2023-01-20T05:21:54.799Z,17.40
2023-01-20T05:24:24.326Z,15.30
2023-01-20T05:26:53.387Z,17.50
2023-01-20T05:29:24.083Z,16.85
2023-01-20T05:31:53.261Z,16.60
2023-01-20T05:34:22.527Z,15.30
2023-01-20T05:36:54.694Z,15.25
2023-01-20T05:39:23.911Z,16.17
2023-01-20T05:41:53.039Z,19.35
2023-01-20T05:44:23.599Z,15.23
2023-01-20T05:46:52.742Z,18.80
2023-01-20T05:49:21.761Z,18.17
2023-01-20T05:51:50.755Z,15.75
2023-01-20T05:54:20.158Z,15.52
2023-01-20T05:56:50.477Z,15.57
2023-01-20T05:59:19.687Z,15.98
2023-01-20T06:01:50.145Z,17.08
2023-01-20T06:04:19.362Z,17.50
2023-01-20T06:06:48.358Z,17.30
2023-01-20T06:09:17.340Z,18.75
2023-01-20T06:11:46.509Z,16.65
2023-01-20T06:14:15.607Z,18.45
2023-01-20T06:16:44.886Z,20.38
2023-01-20T06:19:15.323Z,19.15
2023-01-20T06:21:46.764Z,20.27
2023-01-20T06:24:16.214Z,20.08
2023-01-20T06:26:45.328Z,20.17
2023-01-20T06:29:14.344Z,19.48
2023-01-20T06:31:44.550Z,18.10
2023-01-20T06:34:15.208Z,16.30
2023-01-20T06:36:44.385Z,18.40
2023-01-20T06:39:13.441Z,18.88
2023-01-20T06:41:42.451Z,19.20
2023-01-20T06:44:11.580Z,19.67
2023-01-20T06:46:40.676Z,16.83
2023-01-20T06:49:09.678Z,20.35
2023-01-20T06:51:40.074Z,19.70
2023-01-20T06:54:09.022Z,21.00
2023-01-20T06:56:38.173Z,23.50
2023-01-20T06:59:07.141Z,17.98
2023-01-20T07:01:36.167Z,20.67
2023-01-20T07:04:05.176Z,18.55
2023-01-20T07:06:38.856Z,20.23
2023-01-20T07:09:11.128Z,19.25
2023-01-20T07:11:40.681Z,21.10
2023-01-20T07:14:10.278Z,20.85
2023-01-20T07:16:39.401Z,19.48
2023-01-20T07:19:08.500Z,20.30
2023-01-20T07:21:37.739Z,19.02
2023-01-20T07:24:10.455Z,21.05
2023-01-20T07:26:39.477Z,19.40
2023-01-20T07:29:08.530Z,18.90
2023-01-20T07:31:38.613Z,17.80
2023-01-20T07:34:07.722Z,22.20
2023-01-20T07:36:36.718Z,19.63
2023-01-20T07:39:05.868Z,17.95
2023-01-20T07:41:36.478Z,19.05
2023-01-20T07:44:05.693Z,20.45
2023-01-20T07:46:34.792Z,18.60
2023-01-20T07:49:03.892Z,19.77
2023-01-20T07:51:33.133Z,19.25
2023-01-20T07:54:03.114Z,18.80
2023-01-20T07:56:32.543Z,23.90
2023-01-20T07:59:03.235Z,23.00
2023-01-20T08:01:33.934Z,19.30
2023-01-20T08:04:05.319Z,21.15
2023-01-20T08:06:34.389Z,19.08
2023-01-20T08:09:04.433Z,20.33
2023-01-20T08:11:33.476Z,21.17
2023-01-20T08:14:04.053Z,17.98
2023-01-20T08:16:33.146Z,17.95
2023-01-20T08:19:02.165Z,20.20
2023-01-20T08:21:33.176Z,20.50
2023-01-20T08:24:06.696Z,19.65
2023-01-20T08:26:35.950Z,18.65
2023-01-20T08:29:08.390Z,18.23
2023-01-20T08:31:37.692Z,22.02
2023-01-20T08:34:07.466Z,17.17
2023-01-20T08:36:38.630Z,21.05
2023-01-20T08:39:09.944Z,21.33
2023-01-20T08:41:40.503Z,18.88
2023-01-20T08:44:11.742Z,19.05
2023-01-20T08:46:41.986Z,20.17
2023-01-20T08:49:12.968Z,18.27
2023-01-20T08:51:43.101Z,23.60
2023-01-20T08:54:12.501Z,18.02
2023-01-20T08:56:41.959Z,18.98
2023-01-20T08:59:12.777Z,19.08
2023-01-20T09:01:43.271Z,16.25
2023-01-20T09:04:12.516Z,17.10
2023-01-20T09:06:43.919Z,14.43
2023-01-20T09:09:13.932Z,16.40
2023-01-20T09:11:44.980Z,12.95
2023-01-20T09:14:15.577Z,15.68
2023-01-20T09:16:44.699Z,15.70
2023-01-20T09:19:13.720Z,15.90
2023-01-20T09:21:43.559Z,15.98
2023-01-20T09:24:12.847Z,15.75
2023-01-20T09:26:41.975Z,16.02
2023-01-20T09:29:15.326Z,14.65
2023-01-20T09:31:47.365Z,16.02
2023-01-20T09:34:19.805Z,16.10
2023-01-20T09:36:52.962Z,17.65
2023-01-20T09:39:39.874Z,15.90
2023-01-20T09:42:43.775Z,17.70
2023-01-20T09:45:25.203Z,16.63
2023-01-20T09:48:02.415Z,17.35
2023-01-20T09:50:59.247Z,16.90
2023-01-20T09:53:49.868Z,18.08
2023-01-20T09:56:23.076Z,18.08
2023-01-20T09:58:59.026Z,17.25
2023-01-20T10:01:34.943Z,18.25
2023-01-20T10:04:14.179Z,18.15
2023-01-20T10:06:47.179Z,17.08
2023-01-20T10:09:26.033Z,17.50
2023-01-20T10:12:04.193Z,19.13
2023-01-20T10:14:38.283Z,17.90
2023-01-20T10:17:15.179Z,20.23
2023-01-20T10:19:50.829Z,20.17
2023-01-20T10:22:30.454Z,20.27
2023-01-20T10:25:06.803Z,18.73
2023-01-20T10:27:38.678Z,22.13
2023-01-20T10:30:11.039Z,18.67
2023-01-20T10:32:46.687Z,20.65
2023-01-20T10:35:20.541Z,17.48
2023-01-20T10:37:49.575Z,20.38
2023-01-20T10:40:29.650Z,18.70
2023-01-20T10:43:02.161Z,21.05
2023-01-20T10:45:39.595Z,19.85
2023-01-20T10:48:32.739Z,19.25
2023-01-20T10:51:11.263Z,20.40
2023-01-20T10:54:01.903Z,20.45
2023-01-20T10:56:39.305Z,22.20
2023-01-20T10:59:14.216Z,18.90
2023-01-20T11:01:45.968Z,21.77
2023-01-20T11:04:21.003Z,21.55
2023-01-20T11:06:53.969Z,21.60
2023-01-20T11:09:30.721Z,18.33
2023-01-20T11:12:03.362Z,20.58
2023-01-20T11:14:33.100Z,21.20
2023-01-20T11:17:06.097Z,19.45
2023-01-20T11:19:49.864Z,21.30
2023-01-20T11:22:24.091Z,22.73
2023-01-20T11:26:06.822Z,20.55
2023-01-20T11:28:49.871Z,20.42
2023-01-20T11:31:19.722Z,21.83
2023-01-20T11:34:00.156Z,20.70
2023-01-20T11:36:30.792Z,20.65
2023-01-20T11:38:59.809Z,19.02
2023-01-20T11:41:31.076Z,21.80
2023-01-20T11:44:01.898Z,20.60
2023-01-20T11:46:33.360Z,22.00
2023-01-20T11:49:24.123Z,22.05
2023-01-20T11:51:56.351Z,19.23
2023-01-20T11:54:27.811Z,19.10
2023-01-20T11:57:02.000Z,19.65
2023-01-20T11:59:32.945Z,23.00
2023-01-20T12:02:03.852Z,20.80
2023-01-20T12:04:56.526Z,21.45
2023-01-20T12:07:31.960Z,21.05
2023-01-20T12:10:06.411Z,21.05
2023-01-20T12:12:42.722Z,21.23
2023-01-20T12:15:18.010Z,27.13
2023-01-20T12:17:56.364Z,21.88
2023-01-20T12:20:31.952Z,23.67
2023-01-20T12:23:21.267Z,19.50
2023-01-20T12:25:56.770Z,22.27
2023-01-20T12:28:32.492Z,21.05
2023-01-20T12:31:03.572Z,19.45
2023-01-20T12:33:34.251Z,23.17
2023-01-20T12:36:46.603Z,20.98
2023-01-20T12:39:48.090Z,22.25
2023-01-20T12:42:49.332Z,21.67
2023-01-20T12:45:32.145Z,18.70
2023-01-20T12:48:27.083Z,22.27
2023-01-20T12:51:10.638Z,20.63
2023-01-20T12:53:54.762Z,22.20
2023-01-20T12:56:35.028Z,20.05
2023-01-20T12:59:17.329Z,21.45
2023-01-20T13:02:07.473Z,21.50
2023-01-20T13:05:13.864Z,20.73
2023-01-20T13:07:58.265Z,22.15
2023-01-20T13:10:52.782Z,20.10
2023-01-20T13:13:40.252Z,21.70
2023-01-20T13:16:22.487Z,20.80
2023-01-20T13:19:03.984Z,18.95
2023-01-20T13:21:34.139Z,19.58
2023-01-20T13:24:06.285Z,21.85
2023-01-20T13:26:37.357Z,20.80
2023-01-20T13:29:21.395Z,19.70
2023-01-20T13:31:53.438Z,21.98
2023-01-20T13:34:36.837Z,20.45
2023-01-20T13:37:26.758Z,19.58
2023-01-20T13:39:58.100Z,18.15
2023-01-20T13:42:50.365Z,18.15
2023-01-20T13:45:23.761Z,20.45
2023-01-20T13:48:02.218Z,19.02
2023-01-20T13:50:34.251Z,19.33
2023-01-20T13:53:25.172Z,19.63
2023-01-20T13:56:26.772Z,20.35
2023-01-20T13:59:55.801Z,20.05
2023-01-20T14:02:29.259Z,17.70
2023-01-20T14:04:58.951Z,18.70
2023-01-20T14:07:29.951Z,17.40
2023-01-20T14:10:00.907Z,20.73
2023-01-20T14:12:30.197Z,18.52
2023-01-20T14:14:59.331Z,18.48
2023-01-20T14:17:29.812Z,21.02
2023-01-20T14:19:58.840Z,17.90
2023-01-20T14:22:30.150Z,19.23
2023-01-20T14:25:00.886Z,19.50
2023-01-20T14:27:33.651Z,18.90
2023-01-20T14:30:17.109Z,20.30
2023-01-20T14:32:47.949Z,19.10
2023-01-20T14:35:21.191Z,17.13
2023-01-20T14:37:52.732Z,23.73
2023-01-20T14:40:26.156Z,20.85
2023-01-20T14:42:59.950Z,20.67
2023-01-20T14:45:31.923Z,18.90
2023-01-20T14:48:03.804Z,20.35
2023-01-20T14:50:33.779Z,20.08
2023-01-20T14:53:02.781Z,18.75
2023-01-20T14:55:34.296Z,19.65
2023-01-20T14:58:08.927Z,19.67
2023-01-20T15:00:43.364Z,21.60
2023-01-20T15:03:20.234Z,18.23
2023-01-20T15:05:58.181Z,20.90
2023-01-20T15:08:30.025Z,20.77
2023-01-20T15:11:25.356Z,20.45
2023-01-20T15:14:11.790Z,18.50
2023-01-20T15:16:49.415Z,20.85
2023-01-20T15:19:34.144Z,19.92
2023-01-20T15:22:24.254Z,20.55
2023-01-20T15:24:53.524Z,20.98
2023-01-20T15:27:28.262Z,24.25
2023-01-20T15:30:29.953Z,20.73
2023-01-20T15:32:59.052Z,18.83
2023-01-20T15:36:20.043Z,20.95
2023-01-20T15:38:54.059Z,22.58
2023-01-20T15:41:24.327Z,21.33
2023-01-20T15:43:53.568Z,22.10
2023-01-20T15:46:22.616Z,21.25
2023-01-20T15:48:51.682Z,20.65
2023-01-20T15:51:23.916Z,23.27
2023-01-20T15:53:54.294Z,21.77
2023-01-20T15:56:26.638Z,21.20
2023-01-20T16:00:00.248Z,23.60
2023-01-20T16:02:29.430Z,20.20
2023-01-20T16:04:58.446Z,24.77
2023-01-20T16:07:29.167Z,21.55
2023-01-20T16:09:59.627Z,22.20
2023-01-20T16:12:29.731Z,23.08
2023-01-20T16:14:58.816Z,21.42
2023-01-20T16:17:31.592Z,19.40
2023-01-20T16:20:00.637Z,23.80
2023-01-20T16:22:54.396Z,22.92
2023-01-20T16:25:25.933Z,23.05
2023-01-20T16:27:54.958Z,23.27
2023-01-20T16:30:25.012Z,21.63
2023-01-20T16:32:53.996Z,21.90
2023-01-20T16:36:40.741Z,20.95
2023-01-20T16:39:11.455Z,28.83
2023-01-20T16:41:47.932Z,32.35
2023-01-20T16:44:17.692Z,20.90
2023-01-20T16:46:48.500Z,23.67
2023-01-20T16:49:18.070Z,23.55
2023-01-20T16:51:47.162Z,19.25
2023-01-20T16:54:17.353Z,20.70
2023-01-20T16:56:47.759Z,20.92
2023-01-20T16:59:17.556Z,23.25
2023-01-20T17:01:49.565Z,20.75
2023-01-20T17:04:18.715Z,20.20
2023-01-20T17:07:24.445Z,19.15
2023-01-20T17:09:53.445Z,20.30
2023-01-20T17:12:23.835Z,21.25
2023-01-20T17:14:52.966Z,19.65
2023-01-20T17:17:22.584Z,16.85
2023-01-20T17:19:51.711Z,18.85
2023-01-20T17:22:20.835Z,18.38
2023-01-20T17:24:49.900Z,17.92
2023-01-20T17:27:19.001Z,18.05
2023-01-20T17:29:49.562Z,21.63
2023-01-20T17:32:19.074Z,22.27
2023-01-20T17:34:49.895Z,22.23
2023-01-20T17:37:18.884Z,19.48
2023-01-20T17:39:47.956Z,18.60
2023-01-20T17:42:17.797Z,16.85
2023-01-20T17:44:48.259Z,21.35
2023-01-20T17:47:17.327Z,18.45
2023-01-20T17:49:46.345Z,18.80
2023-01-20T17:52:15.397Z,21.33
2023-01-20T17:54:44.433Z,20.95
2023-01-20T17:57:13.542Z,23.00
2023-01-20T17:59:42.611Z,21.02
2023-01-20T18:02:18.717Z,20.77
2023-01-20T18:04:47.943Z,21.92
2023-01-20T18:07:17.199Z,23.83
2023-01-20T18:09:46.291Z,20.95
2023-01-20T18:12:15.261Z,20.02
2023-01-20T18:14:44.323Z,21.23
2023-01-20T18:17:14.748Z,19.35
2023-01-20T18:19:43.815Z,23.20
2023-01-20T18:22:14.427Z,21.08
2023-01-20T18:24:43.761Z,19.55
2023-01-20T18:27:12.753Z,28.92
2023-01-20T18:29:42.044Z,21.25
2023-01-20T18:32:11.081Z,26.10
2023-01-20T18:34:41.444Z,20.48
2023-01-20T18:37:10.538Z,19.77
2023-01-20T18:39:39.559Z,20.02
2023-01-20T18:42:08.637Z,21.02
2023-01-20T18:44:37.731Z,17.83
2023-01-20T18:47:06.911Z,15.77
2023-01-20T18:49:36.043Z,18.15
2023-01-20T18:52:09.810Z,19.55
2023-01-20T18:54:39.309Z,18.75
2023-01-20T18:57:09.208Z,19.63
2023-01-20T18:59:38.412Z,20.98
2023-01-20T19:02:07.794Z,17.85
2023-01-20T19:04:36.897Z,19.25
2023-01-20T19:07:06.170Z,19.63
2023-01-20T19:10:05.549Z,20.40
2023-01-20T19:12:34.626Z,21.00
2023-01-20T19:15:03.784Z,18.48
2023-01-20T19:17:33.282Z,21.65
2023-01-20T19:20:02.268Z,19.40
2023-01-20T19:22:31.719Z,19.23
2023-01-20T19:25:00.714Z,20.05
2023-01-20T19:27:32.360Z,18.30
2023-01-20T19:30:01.530Z,20.25
2023-01-20T19:32:30.541Z,19.75
2023-01-20T19:34:59.620Z,21.33
2023-01-20T19:37:28.976Z,20.38
2023-01-20T19:39:58.082Z,19.55
2023-01-20T19:42:27.167Z,18.13
2023-01-20T19:44:57.652Z,17.63
2023-01-20T19:47:30.619Z,20.02
2023-01-20T19:49:59.934Z,18.85
2023-01-20T19:52:30.681Z,18.80
2023-01-20T19:54:59.792Z,18.23
2023-01-20T19:57:28.886Z,18.13
2023-01-20T19:59:59.434Z,19.08
2023-01-20T20:02:28.736Z,15.18
2023-01-20T20:04:57.766Z,18.40
2023-01-20T20:07:26.869Z,16.40
2023-01-20T20:09:55.973Z,16.15
2023-01-20T20:12:25.067Z,16.77
2023-01-20T20:14:55.133Z,14.90
2023-01-20T20:17:26.063Z,14.82
2023-01-20T20:19:55.225Z,16.13
2023-01-20T20:22:24.308Z,16.20
2023-01-20T20:24:53.314Z,17.67
2023-01-20T20:27:22.321Z,16.67
2023-01-20T20:29:51.401Z,16.40
2023-01-20T20:32:20.405Z,18.75
2023-01-20T20:34:51.066Z,36.78
2023-01-20T20:37:20.102Z,22.05
2023-01-20T20:39:49.150Z,18.85
2023-01-20T20:42:19.951Z,16.73
2023-01-20T20:44:49.078Z,15.15
2023-01-20T20:47:18.321Z,17.00
2023-01-20T20:49:47.678Z,16.33
2023-01-20T20:52:18.103Z,17.15
2023-01-20T20:54:48.223Z,16.98
2023-01-20T20:57:17.261Z,17.90
2023-01-20T20:59:58.580Z,17.50
2023-01-20T21:02:28.480Z,15.60
2023-01-20T21:04:57.584Z,15.90
2023-01-20T21:07:27.939Z,13.10
2023-01-20T21:09:56.960Z,12.88
2023-01-20T21:12:26.152Z,16.35
2023-01-20T21:14:55.164Z,16.20
2023-01-20T21:17:24.305Z,16.55
2023-01-20T21:19:53.307Z,14.27
2023-01-20T21:22:22.389Z,16.02
2023-01-20T21:24:52.941Z,15.10
2023-01-20T21:27:22.024Z,13.50
2023-01-20T21:29:51.015Z,13.85
2023-01-20T21:32:20.272Z,16.65
2023-01-20T21:34:49.392Z,14.68
2023-01-20T21:37:19.252Z,12.07
2023-01-20T21:39:48.326Z,13.73
2023-01-20T21:42:18.955Z,13.90
2023-01-20T21:44:46.988Z,11.05
2023-01-20T21:47:16.165Z,13.68
2023-01-20T21:50:02.908Z,12.55
2023-01-20T21:52:44.364Z,11.52
2023-01-20T21:55:16.732Z,14.75
2023-01-20T21:57:50.193Z,12.98
2023-01-20T22:00:20.917Z,11.30
2023-01-20T22:02:50.050Z,12.98
2023-01-20T22:05:19.086Z,11.88
2023-01-20T22:07:48.554Z,13.07
2023-01-20T22:10:18.275Z,13.48
2023-01-20T22:12:48.873Z,11.43
2023-01-20T22:15:18.057Z,13.13
2023-01-20T22:17:47.566Z,12.00
2023-01-20T22:20:17.270Z,13.63
2023-01-20T22:22:46.601Z,11.57
2023-01-20T22:25:15.864Z,13.32
2023-01-20T22:27:44.842Z,11.68
2023-01-20T22:30:16.219Z,10.20
2023-01-20T22:32:45.482Z,11.35
2023-01-20T22:35:14.718Z,11.48
2023-01-20T22:37:43.871Z,10.75
2023-01-20T22:40:14.103Z,13.50
2023-01-20T22:42:43.529Z,10.00
2023-01-20T22:45:14.500Z,8.43
2023-01-20T22:48:09.317Z,13.05
2023-01-20T22:50:38.353Z,11.10
2023-01-20T22:53:07.561Z,11.35
2023-01-20T22:55:36.699Z,9.38
2023-01-20T22:58:05.744Z,8.10
2023-01-20T23:00:36.223Z,8.48
2023-01-20T23:03:05.452Z,8.48
2023-01-20T23:05:35.006Z,9.90
2023-01-20T23:08:04.315Z,11.60
2023-01-20T23:10:48.611Z,10.32
2023-01-20T23:13:18.847Z,9.50
2023-01-20T23:15:49.292Z,10.25
2023-01-20T23:18:18.942Z,9.40
2023-01-20T23:20:49.890Z,10.95
2023-01-20T23:23:19.844Z,10.27
2023-01-20T23:25:49.371Z,8.18
2023-01-20T23:28:18.759Z,11.18
2023-01-20T23:30:49.341Z,10.60
2023-01-20T23:33:18.533Z,11.40
2023-01-20T23:35:47.637Z,7.22
2023-01-20T23:38:16.761Z,10.48
2023-01-20T23:40:50.109Z,11.48
2023-01-20T23:43:19.202Z,9.88
2023-01-20T23:45:49.885Z,10.02
2023-01-20T23:48:19.267Z,8.75
2023-01-20T23:50:48.490Z,6.88
2023-01-20T23:53:17.488Z,7.97
2023-01-20T23:55:46.580Z,9.35
2023-01-20T23:58:15.743Z,9.52
